Tiempo atmosférico en la estación meteorológica de Segovia, Segovia (1005 m.)



Fecha
DESCASC
Temp. máxima en grados centígrados (hora)
DESCASC
Temp. mínima en grados centígrados (hora)
DESCASC
Temp. media en grados centígrados
DESCASC
Racha de viento máxima en m/sg (hora)
DESCASC
Velocidad máxima media en intervalos de 10 minutos(hora)
DESCASC
Precipitaciones diarias en mm
DESCASC
Precipitaciones de 00:00 a 06:00 en mm
DESCASC
Precipitaciones de 06:00 a 12:00 en mm
DESCASC
Precipitaciones de 12:00 a 18:00 en mm
DESCASC
Precipitaciones de 18:00 a 24:00 en mm
DESCASC
08-12-2019 9.4 (12:10) 3.1 (05:00) 6.2 5 (21:50) 3.06 (05:10) 4.6 0 0 2.2 2.4
07-12-2019 11.7 (15:30) 2.4 (05:20) 7 5 (14:30) 2.78 (05:40) 0 0 0 0 0
06-12-2019 11.1 (14:40) 2.5 (08:30) 6.8 5 (07:00) 3.61 (07:00) 0 0 0 0 0
05-12-2019 9.8 (17:00) 2.4 (00:00) 6.1 4.72 (16:00) 2.78 (16:00) 0 0 0 0 0
04-12-2019 5.1 (14:30) 1.7 (05:50) 3.4 3.89 (16:00) 2.5 (16:00) 0 0 0 0 0
03-12-2019 5.5 (16:00) -0.2 (00:00) 2.6 3.89 (12:00) 2.5 (03:20) 0 0 0 0 0
02-12-2019 8.8 (15:10) 0.5 (00:00) 4.7 11.39 (16:30) 6.11 (13:00) 0.2 0 0.2 0 0
01-12-2019 6.9 (11:10) 3.7 (00:00) 5.3 7.22 (23:10) 3.89 (04:00) 9.6 0 2 4.4 3.2
30-11-2019 15.7 (12:40) 4.1 (00:00) 9.9 13.06 (14:30) 9.44 (14:40) 14 0 0 6.6 7.4
29-11-2019 12.5 (16:10) 9.1 (00:00) 10.8 10.28 (01:10) 6.11 (13:00) 3 0.2 2.6 0.2 0
28-11-2019 12.3 (14:00) 7.8 (00:00) 10.1 10.56 (13:10) 7.22 (09:20) 0 0 0 0 0
27-11-2019 10.3 (14:40) 6.2 (00:00) 8.3 12.78 (16:00) 8.89 (16:10) 1.6 1.6 0 0 0
26-11-2019 16.9 (12:50) 6.9 (00:00) 11.9 16.94 (23:40) 10 (23:40) 1.4 0 0 0 1.4
25-11-2019 12.1 (14:00) 8.8 (06:10) 10.5 11.11 (01:50) 7.5 (01:50) 1.2 1 0 0.2 0
24-11-2019 10.1 (23:00) 2.4 (00:00) 6.3 8.89 (04:10) 5.56 (03:50) 0 0 0 0 0
23-11-2019 7.1 (15:10) 2.5 (00:00) 4.8 16.67 (04:50) 11.94 (04:10) 3 3 0 0 0
22-11-2019 13.8 (15:40) 4.9 (00:00) 9.4 21.67 (12:30) 15.56 (12:30) 1.6 0 0.6 1 0
21-11-2019 8.1 (16:10) 3.1 (00:00) 5.6 8.61 (11:30) 6.11 (11:40) 1.6 0 0.6 1 0
20-11-2019 7.6 (12:50) 2.1 (08:00) 4.8 10.28 (13:20) 8.06 (13:30) 3.2 0 0 3 0.2
19-11-2019 8.3 (12:20) 0.7 (00:00) 4.5 5 (14:20) 3.06 (15:10) 0 0 0 0 0
18-11-2019 4.4 (16:40) 1.1 (00:00) 2.8 6.67 (01:30) 4.17 (01:30) 0 0 0 0 0
17-11-2019 7.9 (15:50) 1.5 (00:00) 4.7 12.5 (15:00) 8.33 (15:10) 5.4 0 2 3.4 0
16-11-2019 5.9 (16:20) -0.3 (00:00) 2.8 8.06 (15:20) 5.28 (15:20) 0 0 0 0 0
15-11-2019 4.5 (15:00) -0.3 (00:00) 2.1 11.39 (14:40) 7.22 (14:30) 4 3 0.8 0.2 0
14-11-2019 7.3 (00:00) 0.3 (00:00) 3.8 20 (15:50) 13.33 (15:50) 6 1 3.8 1.2 0
13-11-2019 11.5 (15:10) 6.8 (00:00) 9.2 16.67 (03:50) 11.39 (03:50) 6.8 5.6 1.2 0 0
12-11-2019 8.5 (16:00) 0.7 (00:00) 4.6 9.17 (23:59) 6.39 (23:59) 11.2 0 0.2 0 11

Gráficas

Temp. máximas Temp. mínimas Temp. medias Precipitaciones Rachas de viento máximas Velocidades máximas media en intervalos de 10 minutos

Datos horarios

Fecha y hora oficial Temperatura (ºC) Velocidad del viento (km/h) Dirección del viento Racha (km/h) Dirección de racha Precipitación (mm) Presión (hPa) Tendencia (hPa) Humedad (%)
2019-12-11 23:00:00 1.6 8 Sudoeste 22 Sudoeste 0 909.2 -0.5 88
2019-12-11 22:00:00 1.5 15 Sudoeste 23 Sudoeste 0 909.5 0 88
2019-12-11 21:00:00 1.7 6 Oeste 22 Oeste 0 909.7 0.8 89
2019-12-11 20:00:00 2.7 13 Sudoeste 23 Oeste 0 909.7 1.2 86
2019-12-11 19:00:00 3.8 14 Oeste 19 Oeste 0 909.5 1.3 86
2019-12-11 18:00:00 4.4 8 Oeste 24 Noroeste 0 908.9 0.7 73
2019-12-11 17:00:00 5.9 16 Noroeste 33 Noroeste 0 908.5 0.4 63
2019-12-11 16:00:00 6.5 20 Oeste 35 Oeste 0 908.2 0.2 74
2019-12-11 15:00:00 5.7 15 Oeste 31 Noroeste 0 908.2 -0.2 82
2019-12-11 14:00:00 4.7 15 Oeste 34 Oeste 0 908.1 0.1 89
2019-12-11 13:00:00 5.1 16 Oeste 26 Noroeste 0 908 1 90
2019-12-11 12:00:00 4.6 12 Oeste 34 Oeste 0 908.4 2 96
2019-12-11 11:00:00 4.8 17 Oeste 30 Oeste 1.2 908 2.2 98
2019-12-11 10:00:00 4.8 4 Sudoeste 17 Oeste 2.8 907 0.8 93
2019-12-11 09:00:00 6 3 Noroeste 16 Sudoeste 1 906.4 0 67
2019-12-11 08:00:00 8.1 13 Sudoeste 17 Sudoeste 0 905.8 -1.4 40
2019-12-11 07:00:00 6.7 6 Sudeste 11 Sur 0 906.2 -1.5 42
2019-12-11 06:00:00 6.2 10 Sudeste 12 Sudeste 0 906.4 -1.9 47
2019-12-11 05:00:00 6 6 Sudeste 15 Sudeste 0 907.2 -1.4 49
2019-12-11 04:00:00 5.8 3 Este 14 Sudeste 0 907.7 -1.4 47
2019-12-11 03:00:00 5.8 6 Sudeste 11 Sudoeste 0 908.3 -1 51
2019-12-11 02:00:00 6.4 8 Sur 15 Sudeste 0 908.6 -0.8 50
2019-12-11 01:00:00 6.4 9 Sudeste 14 Sur 0 909.1 -0.7 56
2019-12-11 00:00:00 6.4 13 Sur 20 Sudeste 0 909.3 -0.7 53
2019-12-10 23:00:00 5.2 10 Sudeste 14 Sudeste 0 909.4 -0.7 53
2019-12-10 22:00:00 5.7 5 Este 12 Sudeste 0 909.8 -0.1 51
2019-12-10 21:00:00 6 5 Este 12 Sudeste 0 910 0.1 55
2019-12-10 20:00:00 6.1 11 Sudeste 13 Sudeste 0 910.1 -0.4 68
2019-12-10 19:00:00 8 3 Sudeste 9 Sudeste 0 909.9 -0.7 62
2019-12-10 18:00:00 8.6 6 Sudeste 8 Oeste 0 909.9 -1 57
2019-12-10 17:00:00 9.5 6 Oeste 8 Oeste 0 910.5 -1 56
2019-12-10 16:00:00 10.6 5 Sudoeste 10 Oeste 0 910.6 -1.6 53
2019-12-10 15:00:00 11.8 6 Oeste 13 Oeste 0 910.9 -2.5 53
2019-12-10 14:00:00 10.8 5 Noroeste 13 Noroeste 0 911.5 -2 50
2019-12-10 13:00:00 9.8 4 Oeste 7 Oeste 0 912.2 -1.1 51
2019-12-10 12:00:00 7.5 6 Oeste 8 Oeste 0 913.4 0.1 63
2019-12-10 11:00:00 6.9 4 Sur 13 Nordeste 0 913.5 0.3 55
2019-12-10 10:00:00 3.5 6 Este 8 Este 0 913.3 0 66
2019-12-10 09:00:00 0.6 6 Nordeste 8 Este 0 913.3 -0.5 76
2019-12-10 08:00:00 0.5 5 Nordeste 9 Este 0 913.2 -0.3 78
2019-12-10 07:00:00 0.2 5 Este 8 Este 0 913.3 -0.9 83
2019-12-10 06:00:00 0.2 4 Sudeste 8 Sur 0 913.8 -0.8 78
2019-12-10 05:00:00 0.8 6 Nordeste 9 Este 0 913.5 -1.2 77
2019-12-10 04:00:00 0.9 6 Este 15 Sudeste 0 914.2 -0.7 78
2019-12-10 03:00:00 1.1 4 Este 12 Este 0 914.6 -0.3 78
2019-12-10 02:00:00 1.4 6 Este 10 Sudeste 0 914.7 -0.1 77
2019-12-10 01:00:00 1.7 8 Sudeste 12 Sudeste 0 914.9 -0.3 76
2019-12-10 00:00:00 2.9 8 Este 12 Sudeste 0 914.9 -0.1 71
2019-12-09 23:00:00 2.4 7 Este 13 Nordeste 0 914.8 0.3 75
2019-12-09 22:00:00 2.9 6 Nordeste 10 Este 0 915.2 1.2 70
2019-12-09 21:00:00 3.7 4 Este 8 Nordeste 0 915 1.3 66
2019-12-09 20:00:00 4.7 6 Nordeste 15 Este 0 914.5 1 63
2019-12-09 19:00:00 6 11 Este 16 Este 0 914 0.6 59
2019-12-09 18:00:00 7.4 5 Nordeste 13 Nordeste 0 913.7 0.5 55
2019-12-09 17:00:00 8.8 9 Nordeste 14 Nordeste 0 913.5 0 48
2019-12-09 16:00:00 10.1 4 Norte 13 Noroeste 0 913.4 -0.4 45
2019-12-09 15:00:00 10.9 10 Noroeste 15 Oeste 0 913.2 -0.9 38
2019-12-09 14:00:00 11.2 6 Oeste 14 Oeste 0 913.5 -0.5 43
2019-12-09 13:00:00 10.3 9 Sudoeste 15 Sudoeste 0 913.8 -0.1 45
2019-12-09 12:00:00 9.8 8 Sudoeste 14 Sudoeste 0 914.1 0.7 64
2019-12-09 11:00:00 7 6 Sur 13 Sudeste 0 914 0.9 89
2019-12-09 10:00:00 4 12 Sudeste 15 Sudeste 0 913.9 1.1 95
2019-12-09 09:00:00 2.9 7 Sur 10 Sudeste 0 913.4 1.4 93
2019-12-09 08:00:00 3.5 10 Sudeste 12 Sudeste 0 913.1 0.6 93
2019-12-09 07:00:00 4.9 5 Este 11 Sur 0 912.8 0.3 95
2019-12-09 06:00:00 5.1 11 Sur 15 Sur 0 912 -0.3 96
2019-12-09 05:00:00 6 6 Sur 10 Sudoeste 0 912.5 0.3 99
2019-12-09 04:00:00 6.7 8 Sudoeste 18 Oeste 0 912.5 0.3 99
2019-12-09 03:00:00 7 9 Sudoeste 13 Sudoeste 0 912.3 0.8 100
2019-12-09 02:00:00 7.2 5 Oeste 8 Sudoeste 0 912.2 1.2 100
2019-12-09 01:00:00 7.7 4 Oeste 8 Oeste 0 912.2 1.2 100
2019-12-09 00:00:00 8.1 4 Oeste 12 Oeste 0 911.5 0.9 100
2019-12-08 23:00:00 8.5 8 Oeste 17 Oeste 0.4 911 1 100
2019-12-08 22:00:00 8.7 10 Noroeste 18 Oeste 0 911 1.5 100
2019-12-08 21:00:00 8.6 9 Oeste 14 Oeste 0.6 910.6 1.4 100
2019-12-08 20:00:00 8.7 6 Oeste 8 Oeste 0.6 910 0.9 100
2019-12-08 19:00:00 8.6 5 Sudoeste 10 Sur 0.8 909.5 0.5 99
2019-12-08 18:00:00 8.5 2 Sur 8 Sudoeste 0.8 909.2 0.1 98
2019-12-08 17:00:00 8.5 4 Sudoeste 10 Sur 0.6 909.1 -0.2 97
2019-12-08 16:00:00 8.2 6 Sur 12 Sur 0.4 909 -0.5 98
2019-12-08 15:00:00 8 4 Sudoeste 12 Sudoeste 0.2 909.1 -0.7 97
2019-12-08 14:00:00 8 8 Sudeste 14 Sudeste 0.2 909.3 -0.7 96
2019-12-08 13:00:00 8.7 6 Sudoeste 16 Sur 0 909.5 -0.2 82
2019-12-08 12:00:00 9.3 8 Sudoeste 13 Sudoeste 0 909.8 0.2 68
2019-12-08 11:00:00 8.1 8 Sur 13 Sudeste 0 910 0.5 73
2019-12-08 10:00:00 6.5 10 Sudeste 14 Sudeste 0 909.7 0.6 73
2019-12-08 09:00:00 3.9 6 Este 11 Sudeste 0 909.6 0.6 83
2019-12-08 08:00:00 3.4 4 Nordeste 9 Sudeste 0 909.5 0.3 88
2019-12-08 07:00:00 3.4 6 Sudeste 11 Sudeste 0 909.1 -0.1 88
2019-12-08 06:00:00 3.9 4 Sudeste 14 Sudeste 0 909 0 86
2019-12-08 05:00:00 3.2 10 Sudeste 15 Sudeste 0 909.2 0 85
2019-12-08 04:00:00 3.6 4 Nordeste 6 Este 0 909.2 -0.6 79
2019-12-08 03:00:00 3.5 5 Este 8 Este 0 909 -0.8 81
2019-12-08 02:00:00 4.3 5 Este 13 Sudeste 0 909.2 -0.3 78
2019-12-08 01:00:00 4 5 Este 8 Este 0 909.8 0.2 80
2019-12-08 00:00:00 4.6 5 Nordeste 8 Sudeste 0 909.8 0.3 81
2019-12-07 23:00:00 4.6 4 Este 9 Sudeste 0 909.5 0.5 85
2019-12-07 22:00:00 4.9 5 Este 7 Sudeste 0 909.6 1 87
2019-12-07 21:00:00 5.7 5 Sudeste 9 Sudeste 0 909.5 1.2 85
2019-12-07 20:00:00 6.1 4 Este 8 Sudeste 0 909 1 83
2019-12-07 19:00:00 7.6 8 Sudeste 10 Sudeste 0 908.6 0.9 77
2019-12-07 18:00:00 9.7 3 Norte 8 Noroeste 0 908.3 0.7 73
2019-12-07 17:00:00 10.8 6 Noroeste 11 Noroeste 0 908 0.1 67
2019-12-07 16:00:00 11.3 6 Noroeste 14 Noroeste 0 907.7 -0.6 66
2019-12-07 15:00:00 11.4 6 Oeste 18 Oeste 0 907.6 -1.1 66
2019-12-07 14:00:00 11.4 7 Oeste 12 Oeste 0 907.9 -0.9 64
2019-12-07 13:00:00 10.6 4 Oeste 7 Sudoeste 0 908.3 -0.3 65
2019-12-07 12:00:00 9.1 5 Sudoeste 8 Oeste 0 908.7 0.4 74
2019-12-07 11:00:00 7.4 3 Noroeste 6 Este 0 908.8 0.8 78
2019-12-07 10:00:00 5.1 5 Este 9 Este 0 908.6 1.4 80
2019-12-07 09:00:00 2.6 5 Nordeste 7 Este 0 908.3 1.2 91
2019-12-07 08:00:00 2.7 8 Sudeste 11 Sudeste 0 908 0.3 90
2019-12-07 07:00:00 2.7 4 Este 6 Este 0 907.2 -0.5 91
2019-12-07 06:00:00 2.9 5 Este 15 Sudeste 0 907.1 -0.9 92
2019-12-07 05:00:00 2.5 4 Este 10 Este 0 907.7 -0.2 90
2019-12-07 04:00:00 3 8 Este 10 Este 0 907.7 -0.3 90
2019-12-07 03:00:00 2.9 6 Este 9 Este 0 908 0.1 90
2019-12-07 02:00:00 3.3 6 Nordeste 8 Nordeste 0 907.9 -0.1 90
2019-12-07 01:00:00 3.4 4 Este 9 Este 0 908 0.1 90
2019-12-07 00:00:00 3.4 6 Nordeste 11 Sudeste 0 907.9 0.6 89
2019-12-06 23:00:00 3.9 4 Este 12 Este 0 908 1 89
2019-12-06 22:00:00 4.4 8 Este 13 Este 0 907.9 1.3 87
2019-12-06 21:00:00 4.9 5 Este 10 Este 0 907.3 1 86
2019-12-06 20:00:00 6 4 Este 10 Este 0 907 0.7 84
2019-12-06 19:00:00 7.6 5 Este 8 Noroeste 0 906.6 0.5 79
2019-12-06 18:00:00 8.8 3 Norte 9 Norte 0 906.3 0 72
2019-12-06 17:00:00 10.1 6 Noroeste 10 Noroeste 0 906.3 -0.5 67
2019-12-06 16:00:00 10.7 5 Noroeste 13 Noroeste 0 906.1 -1.2 66
2019-12-06 15:00:00 11.1 4 Oeste 11 Oeste 0 906.3 -1.2 65
2019-12-06 14:00:00 10.3 5 Oeste 14 Oeste 0 906.8 -0.8 68
2019-12-06 13:00:00 9.6 8 Oeste 12 Oeste 0 907.3 -0.2 73
2019-12-06 12:00:00 8.9 6 Sudoeste 11 Oeste 0 907.5 0.4 76
2019-12-06 11:00:00 7.8 4 Este 6 Este 0 907.6 1.1 74
2019-12-06 10:00:00 5.3 5 Este 13 Sudeste 0 907.5 1.2 82
2019-12-06 09:00:00 2.8 8 Este 13 Sudeste 0 907.1 0.9 89
2019-12-06 08:00:00 3 6 Este 17 Este 0 906.5 0.3 88
2019-12-06 07:00:00 3.3 13 Este 18 Este 0 906.3 0.2 89
2019-12-06 06:00:00 2.9 8 Este 13 Este 0 906.2 0.2 93
2019-12-06 05:00:00 2.7 4 Este 9 Este 0 906.2 0.5 93
2019-12-06 04:00:00 2.9 4 Este 12 Sur 0 906.1 0.2 95
2019-12-06 03:00:00 3.1 4 Nordeste 9 Oeste 0 906 -0.1 96
2019-12-06 02:00:00 3.4 9 Oeste 13 Oeste 0 905.7 -0.4 93
2019-12-06 01:00:00 3.7 4 Nordeste 11 Oeste 0 905.9 0.1 94
2019-12-06 00:00:00 4.1 4 Sudoeste 9 Sudoeste 0 906.1 0.7 93
2019-12-05 23:00:00 4.3 2 Norte 11 Noroeste 0 906.1 0.9 94
2019-12-05 22:00:00 5.2 7 Sudoeste 11 Sudoeste 0 905.8 1.3 89
2019-12-05 21:00:00 6.1 4 Norte 16 Sudeste 0 905.4 1.6 89
2019-12-05 20:00:00 6.1 3 Este 5 Oeste 0 905.2 1.5 90
2019-12-05 19:00:00 5.9 5 Oeste 9 Sudoeste 0 904.5 1.1 88
2019-12-05 18:00:00 7.2 8 Sur 15 Norte 0 903.8 0.4 84
2019-12-05 17:00:00 9.7 3 Sur 14 Sudoeste 0 903.7 0.4 73
2019-12-05 16:00:00 9.3 10 Sudoeste 17 Sudoeste 0 903.4 -0.5 76
2019-12-05 15:00:00 9 10 Sudoeste 15 Sudoeste 0 903.4 -0.8 78
2019-12-05 14:00:00 7.6 9 Sudoeste 14 Sudoeste 0 903.3 -0.6 83
2019-12-05 13:00:00 6.5 5 Noroeste 13 Noroeste 0 903.9 1 83
2019-12-05 12:00:00 5 5 Nordeste 11 Nordeste 0 904.2 1.8 89
2019-12-05 11:00:00 3.7 5 Sudoeste 10 Noroeste 0 903.9 2.3 94
2019-12-05 10:00:00 3.2 6 Oeste 9 Oeste 0 902.9 1.8 95
2019-12-05 09:00:00 3 5 Oeste 6 Noroeste 0 902.4 1.8 96
2019-12-05 08:00:00 2.8 5 Sur 7 Sur 0 901.6 1.3 96
2019-12-05 07:00:00 2.6 5 Sudoeste 6 Sudoeste 0 901.1 1.1 97
2019-12-05 06:00:00 2.6 4 Oeste 13 Oeste 0 900.6 1 97
2019-12-05 05:00:00 2.5 3 Sur 11 Oeste 0 900.3 0.7 97
2019-12-05 04:00:00 2.6 8 Sudoeste 10 Sudoeste 0 900 1 98
2019-12-05 03:00:00 2.8 6 Sur 9 Oeste 0 899.6 1 98
2019-12-05 02:00:00 3.1 3 Sudeste 13 Noroeste 0 899.6 1.6 97
2019-12-05 01:00:00 3.7 8 Sudoeste 10 Oeste 0 899 1.4 95
2019-12-05 00:00:00 3.6 0 Calma 5 Sudoeste 0 898.6 0.7 96
2019-12-04 23:00:00 3.3 0 Calma 8 Sur 0 898 0.6 96
2019-12-04 22:00:00 2.7 5 Sur 8 Sudeste 0 897.6 0.8 96
2019-12-04 21:00:00 3.1 4 Sudoeste 8 Sur 0 897.9 1.3 95
2019-12-04 20:00:00 3.3 0 Calma 7 Sudoeste 0 897.4 1.3 94
2019-12-04 19:00:00 3.8 5 Sudoeste 9 Sudoeste 0 896.8 1 93
2019-12-04 18:00:00 4.1 5 Oeste 9 Oeste 0 896.6 1 91
2019-12-04 17:00:00 4.2 3 Sudoeste 12 Oeste 0 896.1 0.4 91
2019-12-04 16:00:00 4.4 9 Oeste 14 Oeste 0 895.8 -0.1 90
2019-12-04 15:00:00 5 4 Noroeste 10 Noroeste 0 895.6 -0.6 87
2019-12-04 14:00:00 4.6 5 Noroeste 12 Oeste 0 895.7 -1 87
2019-12-04 13:00:00 4.5 4 Oeste 6 Noroeste 0 895.9 -0.6 85
2019-12-04 12:00:00 3.8 5 Oeste 11 Oeste 0 896.2 0.2 89
2019-12-04 11:00:00 3.2 4 Sur 8 Oeste 0 896.7 0.7 92
2019-12-04 10:00:00 3.1 4 Oeste 7 Sudoeste 0 896.5 0.7 91
2019-12-04 09:00:00 2.6 3 Sur 13 Noroeste 0 896 0.3 93
2019-12-04 08:00:00 2.7 7 Sudeste 10 Sudeste 0 896 -0.3 92
2019-12-04 07:00:00 2.8 6 Noroeste 10 Sur 0 895.8 -1 88
2019-12-04 06:00:00 1.7 4 Noroeste 12 Norte 0 895.7 -1.7 94
2019-12-04 05:00:00 2.5 9 Oeste 12 Sudoeste 0 896.3 -1.4 91
2019-12-04 04:00:00 2.8 2 Este 5 Nordeste 0 896.8 -1.6 90
2019-12-04 03:00:00 2.5 4 Noroeste 9 Noroeste 0 897.4 -1.4 90
2019-12-04 02:00:00 2.1 7 Sur 13 Oeste 0 897.7 -1.3 91
2019-12-04 01:00:00 3.5 3 Nordeste 13 Sudeste 0 898.4 -0.6 83
2019-12-04 00:00:00 2.9 6 Este 12 Este 0 898.8 0.2 86
2019-12-03 23:00:00 2.3 7 Este 13 Este 0 899 0.3 89
2019-12-03 22:00:00 1.6 5 Sudoeste 10 Sur 0 899 0.4 90
2019-12-03 21:00:00 2.1 4 Este 11 Este 0 898.6 -0.1 88
2019-12-03 20:00:00 2.5 6 Este 10 Sudeste 0 898.7 0.1 88
2019-12-03 19:00:00 2.8 2 Sur 7 Sur 0 898.6 0.1 85
2019-12-03 18:00:00 3.6 3 Sudoeste 12 Oeste 0 898.7 -0.1 81
2019-12-03 17:00:00 5.3 7 Oeste 11 Oeste 0 898.6 -0.9 76
2019-12-03 16:00:00 5.4 6 Oeste 10 Oeste 0 898.5 -1.8 73
2019-12-03 15:00:00 5 7 Sudoeste 10 Oeste 0 898.8 -2.3 74
2019-12-03 14:00:00 4.1 5 Oeste 12 Oeste 0 899.5 -2 76
2019-12-03 13:00:00 2.9 5 Oeste 11 Sudoeste 0 900.3 -1 80
2019-12-03 12:00:00 1.6 7 Sur 14 Sudeste 0 901.1 -0.3 87
2019-12-03 11:00:00 0.7 5 Este 11 Nordeste 0 901.5 0 88
2019-12-03 10:00:00 0.2 6 Este 12 Nordeste 0 901.3 -0.2 89
2019-12-03 09:00:00 -0.1 3 Noroeste 12 Nordeste 0 901.4 -0.5 91
2019-12-03 08:00:00 0.4 6 Este 10 Nordeste 0 901.5 -0.3 92
2019-12-03 07:00:00 0.4 4 Norte 10 Nordeste 0 901.5 -0.8 94
2019-12-03 06:00:00 0.3 4 Sudoeste 11 Sudoeste 0 901.9 -0.6 95
2019-12-03 05:00:00 0.3 5 Sudoeste 11 Sur 0 901.8 -0.8 95
2019-12-03 04:00:00 0.6 5 Sur 13 Sudoeste 0 902.3 -0.8 95
2019-12-03 03:00:00 0.8 9 Sudoeste 13 Sudoeste 0 902.5 -0.8 95
2019-12-03 02:00:00 0.8 7 Sur 11 Sur 0 902.6 -0.7 95
2019-12-03 01:00:00 0.8 6 Sudoeste 11 Sudoeste 0 903.1 0.1 96
2019-12-03 00:00:00 0.9 8 Sudoeste 13 Sudoeste 0 903.3 0.2 96
2019-12-02 23:00:00 1.1 7 Sudoeste 12 Nordeste 0 903.3 0.9 94
2019-12-02 22:00:00 2 9 Este 26 Nordeste 0 903 1.3 91
2019-12-02 21:00:00 3 12 Nordeste 29 Nordeste 0 903.1 1.5 88
2019-12-02 20:00:00 3.9 10 Nordeste 21 Nordeste 0 902.4 1.2 82
2019-12-02 19:00:00 5.1 8 Nordeste 28 Nordeste 0 901.7 1 70
2019-12-02 18:00:00 6.4 12 Nordeste 33 Nordeste 0 901.6 1 67
2019-12-02 17:00:00 7.8 16 Nordeste 41 Nordeste 0 901.2 0.4 62
2019-12-02 16:00:00 8.5 21 Nordeste 36 Nordeste 0 900.7 -0.4 60
2019-12-02 15:00:00 8.7 18 Nordeste 37 Norte 0 900.6 -0.9 61
2019-12-02 14:00:00 8.3 21 Nordeste 36 Nordeste 0 900.8 -0.9 63
2019-12-02 13:00:00 7.3 22 Nordeste 36 Nordeste 0 901.1 0.1 67
2019-12-02 12:00:00 6 6 Oeste 14 Sudoeste 0.2 901.5 1.3 82
2019-12-02 11:00:00 3.3 5 Sur 12 Sur 0 901.7 1.9 96
2019-12-02 10:00:00 1 7 Sudeste 15 Sur 0 901 1.8 99
2019-12-02 09:00:00 0.5 11 Sudeste 19 Sur 0 900.2 1.4 96
2019-12-02 08:00:00 1.5 5 Noroeste 11 Sur 0 899.8 1.2 91
2019-12-02 07:00:00 2.2 4 Noroeste 12 Este 0 899.2 0.9 89
2019-12-02 06:00:00 2.6 7 Nordeste 22 Nordeste 0 898.8 0.6 89
2019-12-02 05:00:00 3.1 16 Nordeste 29 Nordeste 0 898.6 0.9 88
2019-12-02 04:00:00 3.2 14 Nordeste 23 Nordeste 0 898.3 0.7 89
2019-12-02 03:00:00 4 17 Nordeste 27 Nordeste 0 898.2 0.7 87
2019-12-02 02:00:00 4.6 13 Nordeste 25 Nordeste 0 897.7 0.3 89
2019-12-02 01:00:00 5.3 16 Este 26 Este 0 897.6 0.5 90
2019-12-02 00:00:00 5.1 9 Nordeste 26 Nordeste 0 897.5 0.5 94
2019-12-01 23:00:00 5.1 13 Nordeste 24 Nordeste 0 897.4 0.5 95
2019-12-01 22:00:00 5.1 12 Nordeste 21 Nordeste 0.2 897.1 0.8 94
2019-12-01 21:00:00 4.9 9 Nordeste 17 Nordeste 1 897 1 95
2019-12-01 20:00:00 4.7 6 Nordeste 10 Este 1.6 896.9 1.2 94
2019-12-01 19:00:00 5.2 8 Este 15 Este 0.4 896.3 0.6 92
2019-12-01 18:00:00 5.4 8 Nordeste 15 Nordeste 0.2 896 0.4 94
2019-12-01 17:00:00 5.6 10 Nordeste 17 Nordeste 0.4 895.7 -0.1 92
2019-12-01 16:00:00 5.9 9 Nordeste 19 Nordeste 0.2 895.7 -0.5 91
2019-12-01 15:00:00 5.8 12 Nordeste 21 Nordeste 0.4 895.6 -1.2 92
2019-12-01 14:00:00 5.5 10 Nordeste 21 Nordeste 0.2 895.8 -0.6 92
2019-12-01 13:00:00 5.2 10 Nordeste 14 Nordeste 3 896.2 0.4 93
2019-12-01 12:00:00 5.2 6 Noroeste 18 Noroeste 1.8 896.8 1.3 92
2019-12-01 11:00:00 6.7 5 Norte 11 Sudeste 0.2 896.4 0.5 83
2019-12-01 10:00:00 6.4 11 Sudeste 19 Sudeste 0 895.8 -0.3 76
2019-12-01 09:00:00 5.1 13 Este 21 Sudeste 0 895.5 -1 74
2019-12-01 08:00:00 4.4 10 Sudeste 15 Este 0 895.9 -1.4 84
2019-12-01 07:00:00 4.3 5 Este 12 Este 0 896.1 -1.5 87
2019-12-01 06:00:00 4.5 11 Sudeste 19 Sudeste 0 896.5 -1.8 81
2019-12-01 05:00:00 3.7 7 Sur 19 Sudeste 0 897.3 -1.6 85
2019-12-01 04:00:00 4.1 14 Sudeste 17 Sudeste 0 897.6 -1.8 84
2019-12-01 03:00:00 4.9 10 Sudeste 16 Sur 0 898.3 -1.7 84
2019-12-01 02:00:00 4.3 12 Sudeste 16 Sur 0 898.9 -1.4 88
2019-12-01 01:00:00 4.1 12 Sur 17 Sur 0 899.4 -1.2 88
2019-12-01 00:00:00 4.3 13 Sudeste 15 Sudeste 0 900 -1.6 89
2019-11-30 23:00:00 4.8 10 Sur 19 Sudeste 0 900.3 -1.8 86
2019-11-30 22:00:00 4.2 11 Sudeste 23 Sur 0.2 900.6 -0.8 88
2019-11-30 21:00:00 4.9 13 Sudoeste 27 Oeste 2.4 901.6 0.4 86
2019-11-30 20:00:00 5.5 10 Oeste 23 Oeste 3 902.1 1.3 93
2019-11-30 19:00:00 6.3 8 Noroeste 23 Norte 1.8 901.4 1.7 98
2019-11-30 18:00:00 6.9 9 Norte 28 Noroeste 3.2 901.2 1.2 96
2019-11-30 17:00:00 7.9 22 Oeste 45 Sur 3.4 900.8 0 96
2019-11-30 16:00:00 13.5 25 Sudoeste 45 Sudoeste 0 899.7 -2.2 65
2019-11-30 15:00:00 13.8 24 Sudoeste 47 Sudoeste 0 900 -2.6 67
2019-11-30 14:00:00 15.1 27 Sudoeste 43 Sudoeste 0 900.8 -2.4 57
2019-11-30 13:00:00 15.6 30 Sudoeste 42 Sudoeste 0 901.9 -1.6 57
2019-11-30 12:00:00 15.4 23 Sudoeste 33 Sudoeste 0 902.6 -1.1 61
2019-11-30 11:00:00 14.5 14 Sudoeste 24 Sur 0 903.2 -0.8 63
2019-11-30 10:00:00 13.1 12 Sudoeste 22 Sudoeste 0 903.5 -0.5 69
2019-11-30 09:00:00 9.3 12 Sur 17 Sudeste 0 903.7 -0.8 85
2019-11-30 08:00:00 8.9 12 Sur 14 Sur 0 904 -0.7 85
2019-11-30 07:00:00 9.4 7 Sudeste 13 Sudeste 0 904 -1.1 87
2019-11-30 06:00:00 9.9 5 Sudoeste 14 Sudoeste 0 904.5 -0.5 86
2019-11-30 05:00:00 10 5 Sur 10 Sur 0 904.7 -0.5 88
2019-11-30 04:00:00 9.9 3 Este 8 Sudeste 0 905.1 -0.7 90
2019-11-30 03:00:00 9.9 2 Este 6 Este 0 905 -1 90
2019-11-30 02:00:00 10 4 Sudeste 8 Sudeste 0 905.2 -0.5 90
2019-11-30 01:00:00 10 4 Este 8 Este 0 905.8 0 90
2019-11-30 00:00:00 9.6 3 Este 12 Sudoeste 0 906 0.1 91
2019-11-29 23:00:00 9.8 5 Este 12 Sudeste 0 905.7 -0.2 88
2019-11-29 22:00:00 9.5 9 Este 14 Este 0 905.8 -0.3 87
2019-11-29 21:00:00 9.4 9 Sudeste 14 Sudeste 0 905.9 0 88
2019-11-29 20:00:00 9.9 10 Sudeste 12 Sudeste 0 905.9 0.2 90
2019-11-29 19:00:00 10.7 7 Sudeste 14 Sudeste 0 906.1 0.7 88
2019-11-29 18:00:00 11.5 2 Sudeste 10 Oeste 0 905.9 0.4 86
2019-11-29 17:00:00 12.2 9 Oeste 17 Oeste 0 905.7 0.2 84
2019-11-29 16:00:00 12.3 9 Oeste 18 Oeste 0 905.4 -0.5 87
2019-11-29 15:00:00 11.9 15 Oeste 27 Oeste 0.2 905.5 -0.7 90
2019-11-29 14:00:00 12 21 Oeste 26 Oeste 0 905.5 -0.5 91
2019-11-29 13:00:00 11.8 22 Oeste 28 Oeste 0 905.9 0.4 93
2019-11-29 12:00:00 11.5 13 Sudoeste 19 Sudoeste 0.6 906.2 1.5 98
2019-11-29 11:00:00 10.9 4 Oeste 9 Sudoeste 1 906 1.8 98
2019-11-29 10:00:00 10.6 4 Sudeste 9 Este 0.6 905.5 1.8 98
2019-11-29 09:00:00 10.5 3 Este 9 Sudoeste 0.4 904.7 1.2 96
2019-11-29 08:00:00 10.5 3 Sudoeste 15 Sudoeste 0 904.2 0.9 94
2019-11-29 07:00:00 10.2 9 Sudoeste 19 Sudoeste 0 903.7 0.7 96
2019-11-29 06:00:00 10.1 12 Sudoeste 23 Oeste 0 903.5 0.9 96
2019-11-29 05:00:00 10.3 15 Sudoeste 27 Oeste 0 903.3 1 92
2019-11-29 04:00:00 10.6 18 Sudoeste 27 Oeste 0 903 0.7 88
2019-11-29 03:00:00 10.8 15 Sudoeste 21 Sudoeste 0 902.6 0.7 86
2019-11-29 02:00:00 10.6 9 Sudoeste 37 Sudoeste 0 902.3 0.6 85
2019-11-29 01:00:00 10.6 14 Sudoeste 27 Sudoeste 0.2 902.3 0.5 84
2019-11-29 00:00:00 11.3 19 Sudoeste 27 Sudoeste 0 901.9 0.3 74
2019-11-28 23:00:00 11.2 15 Sudoeste 27 Sudoeste 0 901.7 0.6 71
2019-11-28 22:00:00 11.1 14 Sudoeste 25 Sudoeste 0 901.8 0.6 70
2019-11-28 21:00:00 10.7 15 Sudoeste 21 Sudoeste 0 901.6 0.9 72
2019-11-28 20:00:00 10.5 15 Sudoeste 24 Sudoeste 0 901.1 0.6 73
2019-11-28 19:00:00 9.7 8 Sur 11 Sur 0 901.2 0.9 80
2019-11-28 18:00:00 10.4 3 Sur 5 Sudoeste 0 900.7 0 78
2019-11-28 17:00:00 11 2 Noroeste 10 Sur 0 900.5 -0.6 74
2019-11-28 16:00:00 11.3 7 Sudoeste 17 Sudoeste 0 900.3 -1.3 69
2019-11-28 15:00:00 11.2 12 Oeste 27 Sudoeste 0 900.7 -1.6 70
2019-11-28 14:00:00 12.3 17 Sudoeste 38 Oeste 0 901.1 -1.5 67
2019-11-28 13:00:00 11.4 18 Sudoeste 29 Sudoeste 0 901.6 -0.6 70
2019-11-28 12:00:00 10.9 12 Sudoeste 28 Sudoeste 0 902.3 0.9 73
2019-11-28 11:00:00 10.1 19 Sudoeste 30 Sudoeste 0 902.6 1.6 77
2019-11-28 10:00:00 9.7 13 Sudoeste 37 Sudoeste 0 902.2 1.5 77
2019-11-28 09:00:00 9.2 21 Sudoeste 32 Sudoeste 0 901.4 1.4 78
2019-11-28 08:00:00 8.7 12 Sudoeste 23 Sudoeste 0 901 0.6 79
2019-11-28 07:00:00 8.9 15 Sudoeste 25 Sudoeste 0 900.7 0.2 79
2019-11-28 06:00:00 8.6 13 Sur 26 Sudoeste 0 900 -0.1 80
2019-11-28 05:00:00 8.7 12 Sudoeste 22 Sudoeste 0 900.4 0.4 78
2019-11-28 04:00:00 8.4 9 Sudoeste 26 Sudoeste 0 900.5 0.3 79
2019-11-28 03:00:00 8.5 15 Sudoeste 23 Sudoeste 0 900.1 -0.2 77
2019-11-28 02:00:00 8.3 15 Sudoeste 23 Sudoeste 0 900 0.3 77
2019-11-28 01:00:00 8.3 15 Sudoeste 24 Sudoeste 0 900.2 0.9 77
2019-11-28 00:00:00 7.8 10 Sur 17 Sudoeste 0 900.3 1.3 79
2019-11-27 23:00:00 7.9 10 Sudoeste 30 Sudoeste 0 899.7 0.7 79
2019-11-27 22:00:00 8.4 17 Sudoeste 26 Sudoeste 0 899.3 0.7 77
2019-11-27 21:00:00 8.4 15 Sudoeste 23 Sudoeste 0 899 0.7 78
2019-11-27 20:00:00 8.5 17 Sudoeste 24 Sudoeste 0 899 1.1 75
2019-11-27 19:00:00 8.7 18 Sudoeste 26 Sudoeste 0 898.6 1.1 73
2019-11-27 18:00:00 9 16 Sudoeste 29 Oeste 0 898.3 1.2 74
2019-11-27 17:00:00 9.5 23 Sudoeste 43 Oeste 0 897.9 0.2 71
2019-11-27 16:00:00 10 31 Oeste 46 Oeste 0 897.5 -0.8 66
2019-11-27 15:00:00 10.2 27 Sudoeste 39 Sudoeste 0 897.1 -2.1 69
2019-11-27 14:00:00 9.8 18 Oeste 36 Oeste 0 897.7 -1.4 70
2019-11-27 06:00:00 6.5 13 Sudoeste 22 Oeste 0 897.2 1.4 83
2019-11-27 05:00:00 6.6 15 Sudoeste 34 Oeste 0 897 1.6 86
2019-11-27 04:00:00 8 10 Oeste 25 Oeste 0 896.7 1.2 93
2019-11-27 03:00:00 8.3 17 Oeste 28 Oeste 0 895.8 0.2 94
2019-11-27 02:00:00 8.9 20 Oeste 36 Sudoeste 0 895.4 0.8 94
2019-11-27 01:00:00 9.1 18 Oeste 31 Oeste 1.6 895.5 0.9 94
2019-11-27 00:00:00 9 22 Oeste 61 Oeste 1.4 895.6 0.9 93
2019-11-26 23:00:00 11.6 22 Sudoeste 41 Sudoeste 0 894.6 0.6 66
2019-11-26 22:00:00 11.2 17 Sudoeste 39 Sudoeste 0 894.6 0.9 82
2019-11-26 21:00:00 12.2 28 Sudoeste 51 Sudoeste 0 894.7 1 79
2019-11-26 20:00:00 13.2 28 Sudoeste 55 Sudoeste 0 894 -0.2 72
2019-11-26 19:00:00 13.5 23 Sudoeste 45 Sur 0 893.7 -1 69
2019-11-26 18:00:00 14.3 25 Sur 54 Sur 0 893.7 -1.1 63
2019-11-26 17:00:00 15 29 Sudoeste 44 Sur 0 894.2 -1.8 61
2019-11-26 16:00:00 15 28 Sudoeste 46 Sudoeste 0 894.7 -1.9 63
2019-11-26 15:00:00 16.6 24 Sudoeste 41 Sudoeste 0 894.8 -2.7 60
2019-11-26 14:00:00 15.9 17 Sudoeste 36 Sudoeste 0 896 -2.7 63
2019-11-26 13:00:00 16.6 19 Sudoeste 29 Sudoeste 0 896.6 -1.5 56
2019-11-26 12:00:00 14.7 9 Sudoeste 37 Sudoeste 0 897.5 -0.7 67
2019-11-26 11:00:00 13.6 6 Oeste 9 Oeste 0 898.7 0.2 81
2019-11-26 10:00:00 12.5 4 Este 12 Sudeste 0 898.1 -0.7 85
2019-11-26 09:00:00 11.6 5 Este 14 Este 0 898.2 -0.9 87
2019-11-26 08:00:00 11 11 Sudeste 16 Sudeste 0 898.5 -1.1 88
2019-11-26 07:00:00 10 12 Sudeste 17 Sudeste 0 898.8 -1.5 88
2019-11-26 06:00:00 9.8 10 Sudeste 15 Sur 0 899.1 -1.4 75
2019-11-26 05:00:00 8.5 7 Este 21 Sudeste 0 899.6 -1.1 69
2019-11-26 04:00:00 6.9 4 Este 9 Este 0 900.3 -1.1 82
2019-11-26 03:00:00 8 6 Sudeste 17 Sur 0 900.5 -1.7 82
2019-11-26 02:00:00 8 9 Sudeste 12 Sudeste 0 900.7 -1.4 84
2019-11-26 01:00:00 8.8 10 Sur 13 Sur 0 901.4 -0.8 85
2019-11-26 00:00:00 9.2 8 Sur 13 Sur 0 902.2 -0.3 85
2019-11-25 23:00:00 9.2 10 Sudeste 13 Sudeste 0 902.1 0 86
2019-11-25 22:00:00 9.4 10 Sur 14 Sur 0 902.2 0.7 87
2019-11-25 21:00:00 9.7 9 Sudoeste 18 Oeste 0 902.5 1.4 85
2019-11-25 20:00:00 10.2 12 Oeste 17 Oeste 0 902.1 1.2 86
2019-11-25 19:00:00 10.5 10 Sudoeste 21 Sudoeste 0 901.5 0.8 82
2019-11-25 18:00:00 10.7 12 Sudoeste 17 Sudoeste 0 901.1 0.8 79
2019-11-25 17:00:00 11.2 11 Sudoeste 21 Oeste 0 900.9 0.6 78
2019-11-25 16:00:00 11.6 12 Oeste 27 Sudoeste 0 900.7 0.3 78
2019-11-25 15:00:00 11.8 20 Oeste 37 Oeste 0 900.3 -0.7 73
2019-11-25 14:00:00 12 23 Oeste 37 Oeste 0 900.3 -0.2 71
2019-11-25 13:00:00 12 22 Oeste 32 Oeste 0.2 900.4 0.2 75
2019-11-25 12:00:00 11.4 16 Oeste 27 Sudoeste 0 901 1.3 78
2019-11-25 11:00:00 10.7 23 Sudoeste 35 Sudoeste 0 900.5 0.6 83
2019-11-25 10:00:00 9.6 17 Sudoeste 32 Sudoeste 0 900.2 0.9 87
2019-11-25 09:00:00 9.4 19 Sudoeste 30 Sudoeste 0 899.7 0.6 85
2019-11-25 08:00:00 9.2 13 Sudoeste 25 Sudoeste 0 899.9 0.8 89
2019-11-25 07:00:00 8.9 15 Sudoeste 25 Sudoeste 0 899.3 0.1 93
2019-11-25 06:00:00 9 19 Sudoeste 27 Oeste 0.4 899.1 0.5 98
2019-11-25 05:00:00 9.3 14 Oeste 34 Oeste 0 899.1 1 93
2019-11-25 04:00:00 9.8 21 Oeste 40 Oeste 0 899.2 1.5 94
2019-11-25 03:00:00 10.2 18 Sudoeste 36 Sudoeste 0.4 898.6 0.4 91
2019-11-25 02:00:00 10.4 26 Sudoeste 40 Sudoeste 0.2 898.1 -0.7 89
2019-11-25 01:00:00 11.4 17 Sudoeste 29 Sudoeste 0 897.7 -1.1 75
2019-11-25 00:00:00 10.1 10 Sur 23 Sudoeste 0 898.2 -1.2 78
2019-11-24 23:00:00 10.1 18 Sudoeste 26 Sudoeste 0 898.8 -0.8 75
2019-11-24 22:00:00 8.5 10 Sur 20 Sur 0 898.8 -0.7 85
2019-11-24 21:00:00 7.3 14 Sur 20 Sur 0 899.4 0 88
2019-11-24 20:00:00 6.9 9 Sur 23 Sudeste 0 899.6 -0.1 86
2019-11-24 19:00:00 5.8 13 Sudeste 22 Sur 0 899.5 0 91
2019-11-24 18:00:00 7 8 Sur 14 Sudoeste 0 899.4 -0.2 76
2019-11-24 17:00:00 7.3 12 Sudoeste 22 Oeste 0 899.7 -0.5 73
2019-11-24 16:00:00 8 12 Oeste 23 Oeste 0 899.5 -1.3 72
2019-11-24 15:00:00 7.7 14 Oeste 23 Sudoeste 0 899.6 -1.7 68
2019-11-24 14:00:00 7 12 Sudoeste 25 Oeste 0 900.2 -1.3 71
2019-11-24 13:00:00 6.7 15 Sudoeste 27 Oeste 0 900.8 0.1 75
2019-11-24 12:00:00 5.6 12 Sudoeste 18 Sur 0 901.3 1.2 80
2019-11-24 11:00:00 5 12 Sudoeste 18 Sudoeste 0 901.5 1.7 84
2019-11-24 10:00:00 3.2 9 Sur 14 Sur 0 900.7 1.4 94
2019-11-24 09:00:00 2.5 12 Sudoeste 20 Sudoeste 0 900.1 1.2 96
2019-11-24 08:00:00 2.6 10 Sudoeste 22 Oeste 0 899.8 1.4 96
2019-11-24 07:00:00 2.8 14 Oeste 20 Oeste 0 899.3 0.9 96
2019-11-24 06:00:00 3.1 14 Oeste 26 Oeste 0 898.9 0.8 95
2019-11-24 05:00:00 3.4 19 Oeste 32 Oeste 0 898.4 0.5 94
2019-11-24 04:00:00 3.5 18 Oeste 30 Oeste 0 898.4 0.6 95
2019-11-24 03:00:00 3.3 10 Oeste 16 Sudoeste 0 898.1 0.7 95
2019-11-24 02:00:00 3.4 11 Sudoeste 19 Sudoeste 0 897.9 0.5 94
2019-11-24 01:00:00 3.5 12 Oeste 19 Sudoeste 0 897.8 0.8 93
2019-11-24 00:00:00 3.7 11 Oeste 18 Oeste 0 897.4 1.1 92
2019-11-23 23:00:00 4.2 12 Sudoeste 22 Sudoeste 0 897.4 1.8 89
2019-11-23 22:00:00 4.7 15 Sudoeste 23 Sudoeste 0 897 2.3 84
2019-11-23 21:00:00 5 13 Sudoeste 24 Oeste 0 896.3 2.3 82
2019-11-23 20:00:00 5.3 16 Sudoeste 33 Oeste 0 895.6 2.7 82
2019-11-23 19:00:00 5.6 21 Oeste 41 Oeste 0 894.7 2.8 80
2019-11-23 18:00:00 6.1 19 Oeste 40 Oeste 0 894 2.7 79
2019-11-23 17:00:00 6.7 21 Oeste 42 Oeste 0 892.9 1.7 76
2019-11-23 16:00:00 6.9 19 Oeste 44 Oeste 0 891.9 1 74
2019-11-23 15:00:00 6.8 27 Oeste 44 Oeste 0 891.3 1.1 76
2019-11-23 14:00:00 6.6 26 Oeste 49 Oeste 0 891.2 1.7 73
2019-11-23 13:00:00 5.8 31 Oeste 50 Oeste 0 890.9 2.8 80
2019-11-23 12:00:00 5.2 28 Oeste 50 Oeste 0 890.2 2.9 84
2019-11-23 11:00:00 4.3 25 Oeste 44 Oeste 0 889.5 4 87
2019-11-23 10:00:00 3.2 24 Oeste 41 Oeste 0 888.1 3.2 89
2019-11-23 09:00:00 2.6 25 Oeste 49 Oeste 0 887.3 3.6 91
2019-11-23 08:00:00 2.8 26 Oeste 49 Oeste 0 885.5 3.3 89
2019-11-23 07:00:00 3.4 26 Oeste 51 Oeste 0 884.9 3.5 87
2019-11-23 06:00:00 3.8 31 Oeste 58 Oeste 0 883.7 2.8 89
2019-11-23 05:00:00 3.7 42 Oeste 60 Oeste 1 882.2 1 93
2019-11-23 04:00:00 3.9 43 Oeste 58 Oeste 1.4 881.4 0.8 91
2019-11-23 03:00:00 4.5 40 Oeste 54 Oeste 0 880.9 0.8 85
2019-11-23 02:00:00 4.7 30 Sudoeste 49 Sudoeste 0 881.2 1.2 89
2019-11-23 01:00:00 5 38 Oeste 58 Sudoeste 0.6 880.6 0.8 91
2019-11-23 00:00:00 6.6 40 Sudoeste 65 Sudoeste 0 880.1 0.2 80
2019-11-22 23:00:00 7.6 35 Sudoeste 53 Sudoeste 0 880 0.3 77
2019-11-22 22:00:00 7.2 24 Sudoeste 36 Sudoeste 0 879.8 0.5 82
2019-11-22 21:00:00 7.4 27 Oeste 40 Sudoeste 0 879.9 2.1 79
2019-11-22 20:00:00 7.7 25 Oeste 41 Oeste 0 879.7 2.4 83
2019-11-22 19:00:00 8.3 13 Oeste 62 Sudoeste 0 879.3 1.9 83
2019-11-22 18:00:00 11.1 29 Sudoeste 55 Sudoeste 0 877.8 0 69
2019-11-22 17:00:00 12.2 32 Sudoeste 53 Sudoeste 0 877.3 -1.1 61
2019-11-22 16:00:00 13.7 33 Sudoeste 68 Sur 0 877.4 -2.6 56
2019-11-22 15:00:00 13.3 37 Sudoeste 68 Sudoeste 0 877.8 -2.6 60
2019-11-22 14:00:00 11.7 36 Sur 68 Sur 0.2 878.4 -3.2 70
2019-11-22 13:00:00 9.3 44 Sur 78 Sur 0.8 880 -2.4 78
2019-11-22 12:00:00 11.5 34 Sur 60 Sur 0 880.4 -3.3 65
2019-11-22 11:00:00 10.1 14 Sudeste 55 Sur 0 881.6 -3.7 68
2019-11-22 10:00:00 9.8 37 Sur 74 Sudeste 0.2 882.4 -3.7 67
2019-11-22 09:00:00 8.5 31 Sudeste 51 Sur 0.2 883.7 -3.6 73
2019-11-22 08:00:00 8 35 Sur 51 Sur 0.2 885.3 -2.9 75
2019-11-22 07:00:00 7.5 19 Sur 38 Sur 0 886.1 -3 77
2019-11-22 06:00:00 7.4 24 Sur 39 Sudoeste 0 887.3 -2.4 76
2019-11-22 05:00:00 7.3 18 Sur 31 Sur 0 888.2 -2.1 78
2019-11-22 04:00:00 6.9 18 Sur 32 Sudoeste 0 889.1 -1.5 79
2019-11-22 03:00:00 6.9 22 Sudoeste 35 Sudoeste 0 889.7 -1.7 78
2019-11-22 02:00:00 6.6 13 Sudoeste 22 Sudoeste 0 890.3 -1.6 78
2019-11-22 01:00:00 5.5 5 Este 12 Sudeste 0 890.6 -1.9 79
2019-11-22 00:00:00 5 11 Sudeste 15 Sudeste 0 891.4 -1.2 80
2019-11-21 23:00:00 4.4 9 Sudeste 18 Sudeste 0 891.9 -0.4 84
2019-11-21 22:00:00 4.1 9 Sudeste 15 Sudeste 0 892.5 0 87
2019-11-21 21:00:00 4.6 9 Sudeste 12 Sudeste 0 892.6 0.2 87
2019-11-21 20:00:00 5.7 9 Sudeste 13 Sudeste 0 892.3 0.1 88
2019-11-21 19:00:00 5.7 4 Sudeste 5 Sur 0 892.5 0.4 86
2019-11-21 18:00:00 6.4 5 Noroeste 21 Oeste 0 892.4 0.5 83
2019-11-21 17:00:00 7.3 6 Sudoeste 17 Oeste 0 892.2 -0.2 81
2019-11-21 16:00:00 7.9 11 Oeste 21 Oeste 0 892.1 -0.7 79
2019-11-21 15:00:00 7.7 11 Sudoeste 23 Oeste 0 891.9 -1.4 83
2019-11-21 14:00:00 6.5 11 Sudoeste 23 Sudoeste 0.2 892.4 -0.7 91
2019-11-21 13:00:00 5.8 21 Oeste 29 Oeste 0.8 892.8 0.1 92
2019-11-21 12:00:00 6.3 13 Sudoeste 31 Oeste 0.2 893.3 0.9 87
2019-11-21 11:00:00 6.7 16 Sudoeste 22 Sudoeste 0 893.1 0.8 79
2019-11-21 10:00:00 5.9 9 Sudoeste 14 Sudoeste 0 892.7 0.7 77
2019-11-21 09:00:00 4.9 7 Sudeste 14 Sur 0.2 892.4 0.6 85
2019-11-21 08:00:00 4.8 8 Sudoeste 15 Sudoeste 0.2 892.3 0.3 81
2019-11-21 07:00:00 4 4 Sudeste 8 Sur 0 892 -0.5 84
2019-11-21 06:00:00 4.3 0 Calma 13 Sur 0 891.8 -0.7 79
2019-11-21 05:00:00 4.1 9 Sur 16 Sudoeste 0 892 -0.7 77
2019-11-21 04:00:00 4 7 Sudeste 11 Sudeste 0 892.5 -0.3 85
2019-11-21 03:00:00 3.4 9 Sudeste 13 Sudeste 0 892.5 -0.4 86
2019-11-21 02:00:00 3.3 7 Sur 12 Sur 0 892.7 -0.2 86
2019-11-21 01:00:00 4.4 8 Sudeste 11 Sudeste 0 892.8 0 87
2019-11-21 00:00:00 4.6 6 Sudeste 9 Sudeste 0 892.9 0.3 88
2019-11-20 23:00:00 4.3 5 Sudeste 11 Sudoeste 0 892.9 0.2 93
2019-11-20 22:00:00 4.8 3 Nordeste 8 Este 0 892.8 0.4 91
2019-11-20 21:00:00 4.9 5 Este 8 Este 0.2 892.6 0.1 89
2019-11-20 20:00:00 4.9 4 Oeste 10 Este 0 892.7 0.2 89
2019-11-20 19:00:00 4.8 7 Sudeste 12 Sudeste 0 892.4 -0.1 88
2019-11-20 18:00:00 5.2 8 Sur 17 Sudoeste 0.4 892.5 0.1 86
2019-11-20 17:00:00 5.6 8 Sur 17 Sudoeste 0.2 892.5 -0.3 80
2019-11-20 16:00:00 5.7 2 Sur 13 Sudeste 0.4 892.5 -1 88
2019-11-20 15:00:00 5.6 6 Este 18 Sudoeste 1.4 892.4 -1.8 83
2019-11-20 14:00:00 6 19 Oeste 37 Sudoeste 0.6 892.8 -1.8 77
2019-11-20 13:00:00 7.5 14 Sudoeste 29 Sudoeste 0 893.5 -0.9 63
2019-11-20 12:00:00 7.1 5 Nordeste 9 Sudeste 0 894.2 -0.3 66
2019-11-20 11:00:00 6.1 2 Noroeste 12 Oeste 0 894.6 0.1 58
2019-11-20 10:00:00 5.5 4 Sur 12 Este 0 894.4 -0.3 72
2019-11-20 09:00:00 2.7 5 Este 8 Sudeste 0 894.5 -0.6 76
2019-11-20 08:00:00 2.2 5 Sudeste 8 Sudeste 0 894.5 -1 73
2019-11-20 07:00:00 2.8 5 Este 10 Sudeste 0 894.7 -1.4 71
2019-11-20 06:00:00 3.1 4 Este 9 Este 0 895.1 -1.5 71
2019-11-20 05:00:00 3.7 5 Este 9 Sudeste 0 895.5 -1.5 70
2019-11-20 04:00:00 4.3 4 Este 11 Sudeste 0 896.1 -1.5 68
2019-11-20 03:00:00 3.9 2 Este 7 Este 0 896.6 -1.7 74
2019-11-20 02:00:00 3.9 4 Este 16 Este 0 897 -1.9 73
2019-11-20 01:00:00 3.5 6 Este 14 Este 0 897.6 -1.6 74
2019-11-20 00:00:00 3.5 5 Este 12 Este 0 898.3 -0.9 75
2019-11-19 23:00:00 3.4 5 Nordeste 9 Este 0 898.9 -0.3 78
2019-11-19 22:00:00 3.4 4 Este 9 Sudeste 0 899.2 -0.1 82
2019-11-19 21:00:00 3.5 7 Sur 9 Sur 0 899.2 -0.1 85
2019-11-19 20:00:00 4.2 6 Sudeste 9 Sudeste 0 899.2 -0.2 83
2019-11-19 19:00:00 5.5 5 Este 9 Este 0 899.3 -0.4 72
2019-11-19 18:00:00 6 3 Norte 5 Oeste 0 899.3 -0.5 69
2019-11-19 17:00:00 6.7 5 Oeste 9 Noroeste 0 899.4 -1 69
2019-11-19 16:00:00 7.1 6 Oeste 17 Oeste 0 899.7 -1.2 67
2019-11-19 15:00:00 7.5 8 Oeste 18 Oeste 0 899.8 -1.7 64
2019-11-19 14:00:00 7.9 10 Oeste 15 Oeste 0 900.4 -1.7 61
2019-11-19 13:00:00 8 7 Oeste 13 Oeste 0 900.9 -1.4 58
2019-11-19 12:00:00 8.2 4 Sur 11 Sudoeste 0 901.5 -0.6 65
2019-11-19 11:00:00 6.4 8 Sudoeste 13 Sudoeste 0 902.1 0.3 76
2019-11-19 10:00:00 3.8 8 Sudeste 10 Sudeste 0 902.3 0.8 87
2019-11-19 09:00:00 2 8 Este 12 Sudeste 0 902.1 0.3 86
2019-11-19 08:00:00 1.2 6 Sudeste 13 Sudeste 0 901.8 0.1 86
2019-11-19 07:00:00 0.9 6 Sudeste 12 Sudeste 0 901.5 -0.4 88
2019-11-19 06:00:00 1 9 Sudeste 12 Sudeste 0 901.8 -0.3 88
2019-11-19 05:00:00 1.2 5 Este 9 Sudeste 0 901.7 -0.4 89
2019-11-19 04:00:00 1.3 5 Este 8 Sudeste 0 901.9 -0.5 91
2019-11-19 03:00:00 1.6 6 Sudeste 8 Sudeste 0 902.1 -0.6 90
2019-11-19 02:00:00 2.2 5 Este 8 Nordeste 0 902.1 -0.9 90
2019-11-19 01:00:00 2.4 4 Nordeste 10 Sudeste 0 902.4 -0.3 91
2019-11-19 00:00:00 2.9 5 Este 13 Sudeste 0 902.7 0.3 88
2019-11-18 23:00:00 2.6 10 Sudeste 12 Sudeste 0 903 0.8 90
2019-11-18 22:00:00 3.4 4 Nordeste 7 Nordeste 0 902.7 0.7 89
2019-11-18 21:00:00 3.8 6 Sudeste 8 Sudeste 0 902.4 0.5 87
2019-11-18 20:00:00 3.8 5 Sudeste 14 Este 0 902.2 0.7 87
2019-11-18 19:00:00 4 5 Sudeste 9 Sudoeste 0 902 0.8 88
2019-11-18 18:00:00 4.1 7 Sudoeste 10 Sudoeste 0 901.9 0.9 87
2019-11-18 17:00:00 4.3 4 Sudoeste 7 Sur 0 901.5 0.5 82
2019-11-18 16:00:00 4.2 4 Sudoeste 8 Noroeste 0 901.2 0.1 84
2019-11-18 15:00:00 4.1 5 Oeste 8 Noroeste 0 901 -0.3 84
2019-11-18 14:00:00 3.8 3 Sudeste 10 Oeste 0 901 0 89
2019-11-18 13:00:00 3.1 4 Oeste 6 Noroeste 0 901.1 0.8 92
2019-11-18 12:00:00 2.3 5 Oeste 10 Sudoeste 0 901.3 1.5 96
2019-11-18 11:00:00 1.8 6 Oeste 11 Noroeste 0 901 2 99
2019-11-18 10:00:00 1.2 6 Oeste 12 Noroeste 0 900.3 1.8 100
2019-11-18 09:00:00 1.2 8 Oeste 13 Oeste 0 899.8 1.9 99
2019-11-18 08:00:00 1.4 7 Oeste 13 Noroeste 0 899 1.5 98
2019-11-18 07:00:00 1.8 5 Noroeste 10 Noroeste 0 898.5 1.5 96
2019-11-18 06:00:00 1.6 3 Noroeste 14 Noroeste 0 897.9 1.2 98
2019-11-18 05:00:00 1.6 7 Noroeste 17 Noroeste 0 897.5 1.2 98
2019-11-18 04:00:00 1.9 12 Noroeste 22 Noroeste 0 897 0.5 97
2019-11-18 03:00:00 2.3 12 Oeste 22 Oeste 0 896.7 0.1 98
2019-11-18 02:00:00 2.5 14 Oeste 24 Oeste 0 896.3 0.3 97
2019-11-18 01:00:00 2.8 10 Oeste 19 Oeste 0 896.5 0.7 94
2019-11-18 00:00:00 2.9 8 Oeste 17 Sudoeste 0 896.6 0.8 96
2019-11-17 23:00:00 3.3 10 Oeste 26 Oeste 0 896 0.4 97
2019-11-17 22:00:00 4.7 12 Oeste 31 Oeste 0 895.8 0.4 96
2019-11-17 21:00:00 5.6 15 Oeste 32 Oeste 0 895.8 0.5 96
2019-11-17 20:00:00 6.2 25 Sudoeste 36 Sudoeste 0 895.6 0 95
2019-11-17 19:00:00 6.7 17 Sudoeste 22 Sudoeste 0 895.4 -0.4 96
2019-11-17 18:00:00 7.3 12 Oeste 27 Sudoeste 0 895.3 -0.7 94
2019-11-17 17:00:00 7.5 14 Sudoeste 36 Sudoeste 1 895.6 -1 95
2019-11-17 16:00:00 7.9 26 Oeste 42 Oeste 0 895.8 -1.1 93
2019-11-17 15:00:00 7.2 30 Oeste 45 Oeste 0.4 896 -1.7 99
2019-11-17 14:00:00 7.1 24 Oeste 36 Oeste 1.2 896.6 -1.7 99
2019-11-17 13:00:00 7.3 24 Oeste 34 Oeste 0.8 896.9 -1.6 97
2019-11-17 12:00:00 6.3 13 Sudoeste 22 Sudoeste 1.2 897.7 -0.8 97
2019-11-17 11:00:00 5.7 16 Sudoeste 22 Sudoeste 0 898.3 -0.3 96
2019-11-17 10:00:00 4.3 10 Sudeste 13 Sudeste 0.4 898.5 -0.1 99
2019-11-17 09:00:00 3.5 8 Sudeste 13 Sudeste 0.4 898.5 -0.9 95
2019-11-17 08:00:00 3.2 9 Sudeste 17 Sur 0 898.6 -1 89
2019-11-17 07:00:00 2.9 11 Sur 17 Sur 0 898.6 -1.1 87
2019-11-17 06:00:00 2.7 8 Sudoeste 13 Sudoeste 0 899.4 -0.8 86
2019-11-17 05:00:00 2.4 8 Sur 13 Sudoeste 0 899.6 -0.6 86
2019-11-17 04:00:00 2.1 8 Sudoeste 18 Sudoeste 0 899.7 -0.6 86
2019-11-17 03:00:00 1.9 13 Sudoeste 16 Sudoeste 0 900.2 -0.5 86
2019-11-17 02:00:00 1.6 9 Sudoeste 15 Sudoeste 0 900.2 -0.7 87
2019-11-17 01:00:00 2.2 12 Sudoeste 16 Sudoeste 0 900.3 -0.7 84
2019-11-17 00:00:00 2.2 11 Sudoeste 17 Sudoeste 0 900.7 -0.1 83
2019-11-16 23:00:00 1.7 8 Sudoeste 17 Oeste 0 900.9 0.2 86
2019-11-16 22:00:00 1.8 10 Oeste 20 Sudoeste 0 901 0.4 86
2019-11-16 21:00:00 1.9 11 Oeste 19 Sudoeste 0 900.8 0.8 85
2019-11-16 20:00:00 2.1 11 Sudoeste 15 Sudoeste 0 900.7 1 86
2019-11-16 19:00:00 3 10 Oeste 24 Oeste 0 900.6 0.9 80
2019-11-16 18:00:00 4.4 12 Oeste 25 Oeste 0 900 0.5 71
2019-11-16 17:00:00 5.7 17 Oeste 28 Oeste 0 899.7 0.1 64
2019-11-16 16:00:00 5.4 16 Oeste 29 Oeste 0 899.7 0 66
2019-11-16 15:00:00 5.1 18 Oeste 27 Oeste 0 899.5 -0.8 65
2019-11-16 14:00:00 5 11 Sudoeste 20 Sudoeste 0 899.6 -0.3 70
2019-11-16 13:00:00 3.7 7 Sur 17 Sur 0 899.7 0.1 73
2019-11-16 12:00:00 2.7 8 Sudoeste 16 Sudoeste 0 900.3 1.9 85
2019-11-16 11:00:00 1.5 9 Sur 14 Oeste 0 899.9 2 88
2019-11-16 10:00:00 0.8 8 Sudoeste 12 Sudoeste 0 899.6 2.1 89
2019-11-16 09:00:00 0.3 8 Sudoeste 13 Oeste 0 898.4 1.7 91
2019-11-16 08:00:00 0 5 Sudoeste 12 Oeste 0 897.9 1.6 91
2019-11-16 07:00:00 -0.1 6 Noroeste 14 Oeste 0 897.5 1.7 94
2019-11-16 06:00:00 -0.2 7 Oeste 15 Oeste 0 896.7 1.5 96
2019-11-16 05:00:00 0 9 Oeste 18 Oeste 0 896.3 1.6 97
2019-11-16 04:00:00 0.2 11 Noroeste 17 Oeste 0 895.8 1.5 96
2019-11-16 03:00:00 0.6 10 Oeste 16 Oeste 0 895.2 1.2 95
2019-11-16 02:00:00 0.8 9 Oeste 20 Oeste 0 894.7 1.3 95
2019-11-16 01:00:00 1.1 14 Oeste 21 Oeste 0 894.3 1.3 94
2019-11-16 00:00:00 1.4 13 Oeste 20 Noroeste 0 894 1.7 91
2019-11-15 23:00:00 1.6 12 Oeste 21 Oeste 0 893.4 1.8 90
2019-11-15 22:00:00 2 10 Oeste 23 Oeste 0 893 2 89
2019-11-15 21:00:00 2.5 15 Oeste 25 Oeste 0 892.3 1.6 84
2019-11-15 20:00:00 3.2 17 Oeste 33 Oeste 0 891.6 1.1 81
2019-11-15 19:00:00 3.6 18 Oeste 27 Oeste 0 891 0.7 77
2019-11-15 18:00:00 4 17 Oeste 31 Oeste 0 890.7 0.4 74
2019-11-15 17:00:00 4.5 20 Oeste 35 Noroeste 0 890.5 -0.1 72
2019-11-15 16:00:00 4.4 20 Oeste 39 Noroeste 0 890.3 -0.6 71
2019-11-15 15:00:00 4.4 21 Oeste 41 Oeste 0 890.3 -1.1 73
2019-11-15 14:00:00 4.2 21 Oeste 36 Oeste 0 890.6 -0.8 78
2019-11-15 13:00:00 3 17 Oeste 33 Noroeste 0.2 890.9 -0.1 86
2019-11-15 12:00:00 2 20 Oeste 33 Oeste 0.8 891.4 0.7 92
2019-11-15 11:00:00 0.8 9 Oeste 21 Oeste 0 891.4 1.2 99
2019-11-15 10:00:00 -0.1 10 Oeste 21 Oeste 0 891 1.4 99
2019-11-15 09:00:00 0.1 14 Oeste 23 Oeste 0 890.7 1.6 97
2019-11-15 08:00:00 0.5 13 Oeste 24 Oeste 0 890.2 1.2 98
2019-11-15 07:00:00 0.7 15 Oeste 28 Oeste 0 889.6 0.3 98
2019-11-15 06:00:00 0.8 18 Oeste 32 Noroeste 0.2 889.1 -0.4 99
2019-11-15 05:00:00 0.4 12 Oeste 27 Oeste 0.2 889 -0.1 100
2019-11-15 04:00:00 0.5 15 Oeste 36 Oeste 0.2 889.3 0.4 100
2019-11-15 03:00:00 0.4 18 Oeste 31 Oeste 0.8 889.5 0.9 99
2019-11-15 02:00:00 0.9 17 Oeste 32 Oeste 0.8 889.1 1.1 99
2019-11-15 01:00:00 1.1 19 Oeste 37 Oeste 0.8 888.9 1.4 97
2019-11-15 00:00:00 2.1 19 Oeste 40 Oeste 0 888.6 1.6 92
2019-11-14 23:00:00 2.2 21 Oeste 46 Oeste 0 888 1.6 91
2019-11-14 22:00:00 2.3 23 Oeste 54 Oeste 0 887.5 2 92
2019-11-14 21:00:00 2.5 31 Oeste 56 Oeste 0 887 2.4 91
2019-11-14 20:00:00 2.8 29 Oeste 64 Oeste 0 886.4 1.4 92
2019-11-14 19:00:00 3 35 Oeste 58 Oeste 0 885.5 -0.1 90
2019-11-14 18:00:00 2.5 35 Oeste 59 Oeste 0.6 884.6 -1.6 96
2019-11-14 17:00:00 1.9 28 Sudoeste 54 Sudoeste 0.2 885 -2.2 96
2019-11-14 16:00:00 2.2 40 Sudoeste 72 Oeste 0.4 885.6 -2.6 94
2019-11-14 15:00:00 4.2 37 Oeste 61 Oeste 0 886.2 -3.1 72
2019-11-14 14:00:00 3.7 40 Oeste 60 Oeste 0 887.2 -2.7 76
2019-11-14 13:00:00 4 31 Oeste 46 Oeste 0 888.2 -1.7 75
2019-11-14 12:00:00 3 30 Oeste 41 Oeste 0 889.3 -1.1 79
2019-11-14 11:00:00 2.5 26 Oeste 42 Oeste 0 889.9 -0.7 86
2019-11-14 10:00:00 2.4 23 Oeste 37 Oeste 0.4 889.9 -0.7 90
2019-11-14 09:00:00 2 20 Oeste 31 Sudoeste 1 890.4 0.4 93
2019-11-14 08:00:00 0.4 9 Sur 25 Noroeste 0.6 890.6 0.8 98
2019-11-14 07:00:00 2 20 Noroeste 41 Oeste 1.8 890.6 -0.5 93
2019-11-14 06:00:00 3.6 31 Oeste 63 Sudoeste 1 890 -3.1 93
2019-11-14 05:00:00 6.6 38 Sudoeste 53 Sudoeste 0 889.8 -4.5 79
2019-11-14 04:00:00 6.1 21 Sudoeste 47 Sudoeste 0 891.1 -4.3 79
2019-11-14 03:00:00 6.1 27 Sudoeste 41 Sudoeste 0 893.1 -2.9 79
2019-11-14 02:00:00 6.1 23 Sudoeste 39 Sudoeste 0 894.3 -1.9 83
2019-11-14 01:00:00 6.7 22 Sudoeste 37 Sudoeste 0 895.4 -1.1 87
2019-11-14 00:00:00 7.3 26 Oeste 41 Oeste 0 896 -1.3 88
2019-11-13 23:00:00 8.4 18 Sudoeste 30 Oeste 0 896.2 -1.3 89
2019-11-13 22:00:00 9 17 Sudoeste 24 Sudoeste 0 896.5 -1.1 83
2019-11-13 21:00:00 8.7 15 Sudoeste 24 Sudoeste 0 897.3 -1.1 83
2019-11-13 20:00:00 9.2 21 Sudoeste 29 Sudoeste 0 897.5 -0.8 82
2019-11-13 19:00:00 9.2 12 Sudeste 16 Sur 0 897.6 -0.5 81
2019-11-13 18:00:00 10 6 Oeste 15 Oeste 0 898.4 0.2 75
2019-11-13 17:00:00 10.9 12 Oeste 19 Sudoeste 0 898.3 0.1 70
2019-11-13 16:00:00 10.2 6 Sudoeste 17 Oeste 0 898.1 0 72
2019-11-13 15:00:00 11.1 11 Oeste 23 Oeste 0 898.2 -0.4 70
2019-11-13 14:00:00 10.4 6 Oeste 12 Oeste 0 898.2 -0.4 67
2019-11-13 13:00:00 9.8 5 Noroeste 15 Noroeste 0 898.1 0.6 75
2019-11-13 12:00:00 9 8 Noroeste 24 Nordeste 0 898.6 2.7 79
2019-11-13 11:00:00 7.9 13 Norte 22 Nordeste 0 898.6 5.1 84
2019-11-13 10:00:00 7 11 Nordeste 34 Nordeste 0 897.5 4.6 92
2019-11-13 09:00:00 7.1 18 Norte 54 Noroeste 0.2 895.9 3.5 95
2019-11-13 08:00:00 9.6 23 Oeste 44 Oeste 0.2 893.5 1.2 100
2019-11-13 07:00:00 9.6 22 Oeste 39 Oeste 0.8 892.9 0.7 100
2019-11-13 06:00:00 9.3 28 Oeste 56 Oeste 0.8 892.4 0 99
2019-11-13 05:00:00 9.2 25 Oeste 49 Oeste 0 892.3 -0.5 98
2019-11-13 04:00:00 9.1 37 Oeste 60 Oeste 1.2 892.2 -1.4 97
2019-11-13 03:00:00 8.7 35 Oeste 55 Oeste 1.4 892.4 -2.4 97
2019-11-13 02:00:00 8.8 40 Oeste 54 Oeste 2 892.8 -2.9 97
2019-11-13 01:00:00 8.5 27 Sudoeste 42 Sudoeste 0.2 893.6 -2.8 95
2019-11-13 00:00:00 8 23 Sudoeste 33 Oeste 0.4 894.8 -2.4 97
2019-11-12 23:00:00 7.4 22 Sudoeste 30 Sudoeste 3.2 895.7 -2.2 99
2019-11-12 22:00:00 7 17 Sudoeste 27 Sudoeste 2.6 896.4 -2 98
2019-11-12 21:00:00 6.3 10 Sur 20 Sudoeste 2 897.2 -1.1 98
2019-11-12 20:00:00 5.5 12 Sudeste 14 Sudeste 2 897.9 -1 97
2019-11-12 19:00:00 5.9 9 Sudoeste 22 Oeste 0.8 898.4 -1.1 92
2019-11-12 18:00:00 7.6 11 Sudoeste 19 Sudoeste 0 898.3 -1.7 73
2019-11-12 17:00:00 7.9 13 Sudoeste 21 Sudoeste 0 898.9 -1.9 69
2019-11-12 16:00:00 8.4 12 Sudoeste 21 Sudoeste 0 899.5 -1.8 65
2019-11-12 15:00:00 7.4 9 Oeste 22 Sudoeste 0 900 -2.1 67
2019-11-12 14:00:00 7 11 Oeste 17 Oeste 0 900.8 -1.8 70
2019-11-12 13:00:00 6.6 8 Oeste 20 Noroeste 0 901.3 -1 72
2019-11-12 12:00:00 6.5 6 Oeste 18 Noroeste 0 902.1 0.2 73
2019-11-12 11:00:00 5.8 6 Nordeste 12 Nordeste 0 902.6 0.3 75
2019-11-12 10:00:00 3.8 6 Sudeste 10 Sur 0 902.3 0.9 93
2019-11-12 09:00:00 1.7 7 Sudeste 10 Sudeste 0 901.9 0.2 98
2019-11-12 08:00:00 0.8 5 Oeste 9 Sudoeste 0 902.3 0.5 97
2019-11-12 07:00:00 1.5 3 Nordeste 5 Sudeste 0.2 901.4 -0.7 97
2019-11-12 06:00:00 1.4 7 Sudeste 9 Sudeste 0 901.7 -0.7 97
2019-11-12 05:00:00 1.5 5 Sudeste 7 Sudeste 0 901.8 -1 97
2019-11-12 04:00:00 1.4 2 Sudoeste 12 Sudoeste 0 902.1 -1.5 96
2019-11-12 03:00:00 2.2 6 Oeste 8 Sudoeste 0 902.4 -0.9 93
2019-11-12 02:00:00 2.1 4 Sudoeste 14 Nordeste 0 902.8 -0.2 93
2019-11-12 01:00:00 3.1 5 Nordeste 14 Este 0 903.6 0.6 88
2019-11-12 00:00:00 3.6 10 Nordeste 22 Nordeste 0 903.3 0.4 87